Aktualne dane pomiarowe

Uwaga, wersja testowa! Automatyczne pobieranie danych za pomocą narzędzi lub skryptów to umożliwiających jest zabronione.

Dane meteo z obszaru Polski uzyskane na podstawie depesz SYNOP pobieranych co godzinę z NWS. Najedź myszką na symbol przedstawiony w tabeli, aby uzyskać informacje co do jego znaczenia. Prosimy pamiętać, że to testowa wersja strony, która jeszcze nie jest ukończona. Stworzono również jest krótki FAQ dotyczący korzystania z tej podstrony Anomalie temperatury w chwili obecnej odniesione są do okresu referencyjnego 1951-2016. Okres ten będzie później zmieniony na 1981-2010. Kliknij ikonę aby pobrać plik CSV. Kliknij ikonę aby wygenerować mapę synoptyczną dla danego terminu.

Wybierz Datę:    

        

Elbląg-Milejewo (12160)

Dane terminowe dla wybranej stacji. Kliknij datę, aby otrzymać dane z tego terminu dla wszystkich stacji.

TemperaturaZachmurzenieWiatrCiśnienieOpadyPogoda
 Data t td wb tx tn tg rh  Nt Nl Cl Cm Ch ws wd g1 g2 wx mslp ppp ch 24h 12h t ww ww w1 w2  
2019-07-04 23:00:00 14.2 8.8 10.9--- 7020.0wxwxwx6wx---1010.7 988.7 -2.2---wx---
2019-07-04 22:00:00 14.5 8.0 10.6--- 6520.0wxwxwx7wx-1371011.4 989.4 -2.3---------
2019-07-04 21:00:00 13.7 8.5 10.5--- 7120.0wxwxwx6wx-1461012.4 990.3 -2.2---wx---
2019-07-04 20:00:00 14.2 8.2 10.6--- 6715.0wxwxwx6wx-1461012.9 990.9 -2.3---wx---
2019-07-04 19:00:00 14.6 7.2 10.3--- 6120.0wxwxwx7wx121371013.7 991.7 -2.2---------
2019-07-04 18:00:00 14.7 7.3 10.4 17.7 12.4- 6120.0wxwxwx7wx121271014.5 992.5 -1.8- 0.012------
2019-07-04 17:00:00 15.1 7.4 10.6--- 6020.0wxwxwx6wx-1161015.2 993.2 -1.5---------
2019-07-04 16:00:00 15.5 7.3 10.8--- 5820.0wxwxwx6wx11--1015.9 993.9 -1.0---------
2019-07-04 15:00:00 16.0 5.9 10.4--- 5120.0wxwxwx7wx-1271016.3 994.3 -1.0---------
2019-07-04 14:00:00 16.2 6.0 10.5--- 5120.0wxwxwx6wx-1061016.7 994.7 -1.1---------
2019-07-04 13:00:00 16.8 3.5 9.9--- 4120.0wxwxwxwx5wx101151016.8 994.9 -0.7---------
2019-07-04 12:00:00 16.1 5.1 10.1--- 4820.0wxwxwxwx7wx---1017.3 995.3 -0.2---------
2019-07-04 11:00:00 14.5 5.8 9.6--- 5620.0wxwxwx5wx111251017.9 995.8 0.4---------
2019-07-04 10:00:00 15.9 5.8 10.3--- 5120.0wxwxwx6wx121261017.6 995.6 0.2---------
2019-07-04 09:00:00 13.5 6.1 9.3--- 6120.0wxwxwx6wx111361017.7 995.5 0.2---------
2019-07-04 08:00:00 14.4 6.0 9.7--- 5720.0wxwxwx4wx91041017.5 995.4 0.1---------
2019-07-04 07:00:00 12.8 7.2 9.4--- 6920.0wxwxwx8wx13--1017.6 995.4 0.0---------
2019-07-04 06:00:00 12.4 8.1 9.7 14.6 8.8 8 7520.0wxwxwxwxwx6wx--61017.6 995.3 -0.2- 0.012----- 9.7
2019-07-04 05:00:00 11.6 7.9 9.3--- 7820.0wxwxwxwxwx5wx--51017.6 995.3 -0.3---------
2019-07-04 04:00:00 10.4 6.9 8.2--- 7920.0wxwxwxwxwx5wx--51017.8 995.4 -0.1---------
2019-07-04 03:00:00 9.4 6.8 7.7--- 8420.0wxwxwxwx4wx--41018.0 995.5 -0.1---------
2019-07-04 02:00:00 9.0 6.3 7.3--- 8320.0wxwxwxwx5wx--51018.1 995.6 -0.5---------
2019-07-04 01:00:00 9.1 5.8 7.0--- 8020.0wxwxwxwx4wx--41018.0 995.5 -0.6---------
2019-07-04 00:00:00 9.7 5.9 7.4--- 7720.0wxwxwxwx4wx-941018.1 995.6 -0.5- 0.06------
2019-07-03 23:00:00 10.0 5.4 7.3--- 7320.0wxwxwxwx4wx--41018.6 996.1 0.3---------
2019-07-03 22:00:00 10.0 5.0 7.1--- 7120.0wx-wx5wx--51018.6 996.1 0.5---------
2019-07-03 21:00:00 10.9 4.6 7.3--- 6520.0wxwxwxwx3wx-931018.5 996.1 0.5---------
2019-07-03 20:00:00 11.3 5.0 7.7--- 6520.0wxwxwx3wx--31018.2 995.8 0.0---------
2019-07-03 19:00:00 12.8 5.0 8.4--- 5920.0wxwxwx3wx-931017.8 995.6 -0.2---------
2019-07-03 18:00:00 14.6 4.8 9.3 17.5 12.1- 5220.0wxwxwx5wx-1151017.7 995.6 0.3- 0.012------
2019-07-03 17:00:00 14.4 7.0 10.1--- 6120.0wxwxwxwx4wx-1041017.9 995.8 0.4---------
2019-07-03 16:00:00 15.0 7.3 10.5--- 6020.0wxwxwxwx5wx101051017.9 995.8 0.7---------
2019-07-03 15:00:00 16.8 2.4 9.5--- 3820.0wxwxwxwx5wx101151017.2 995.3 0.1---------
2019-07-03 14:00:00 15.4 4.7 9.6--- 4920.0wxwxwxwx4wx-1041017.4 995.4 0.2---------
2019-07-03 13:00:00 16.4 6.2 10.7--- 5120.0wxwxwx5wx101051017.1 995.1 0.2---------
2019-07-03 12:00:00 16.0 4.1 9.7--- 4520.0wxwxwx5wx---1017.2 995.2 0.7---------
2019-07-03 11:00:00 15.2 4.8 9.6--- 5020.0wxwxwx4wx--41017.2 995.2 1.2---------
2019-07-03 10:00:00 14.7 3.2 8.7--- 4620.0wxwxwx4wx9941017.0 994.9 1.0---------
2019-07-03 09:00:00 14.8 4.2 9.1--- 4920.0wxwxwxwx6wx---1016.6 994.5 1.0---------
2019-07-03 08:00:00 14.2 5.8 9.5--- 5720.0wxwxwx5wx-1151016.1 994.0 0.5---------
2019-07-03 07:00:00 13.1 6.7 9.3--- 6520.0wxwxwxwx4wx-1141016.1 993.9 0.8---------
2019-07-03 06:00:00 12.1 8.0 9.5 14.8 9.5 9 7620.0wxwxwxwx5wx-1051015.8 993.5 0.6 0.5-12wx-- 8.2
2019-07-03 05:00:00 11.8 8.1 9.5--- 7820.0wxwxwx5wx101051015.8 993.5 0.9---wx---
2019-07-03 04:00:00 10.1 7.3 8.3--- 8320.0wxwxwx5wx--51015.5 993.1 0.5---------
2019-07-03 03:00:00 10.0 7.2 8.2--- 8320.0wxwxwx5wx--51015.3 992.9 0.2---------
2019-07-03 02:00:00 9.9 7.0 8.0--- 8220.0wxwxwx6wx--61015.0 992.6 -0.2---------
2019-07-03 01:00:00 10.3 7.0 8.2--- 8020.0wxwxwxwxwx6wx--61015.0 992.6 -0.1---------
2019-07-03 00:00:00 9.6 6.7 7.8--- 8220.0wxwxwxwx5wx-1051015.1 992.7 -0.2- 0.06------
1.7 ms

 

Print Friendly, PDF & Email